Time;durP1;ratioP1;P1;durP2;ratioP2;P2;SDS_P1;SDS_P2;PMS_P1;PMS_P2;Temp;Humidity;BMP_temperature;BMP_pressure;BME280_temperature;BME280_humidity;BME280_pressure;Samples;Min_cycle;Max_cycle;Signal;HPM_P1;HPM_P2
2021/05/14 00:00:14;;;;;;;1.70;1.60;;;10.80;99.90;;;;;;5091086;28;20515;-67
2021/05/14 00:02:42;;;;;;;3.00;1.70;;;10.80;99.90;;;;;;5091530;28;20407;-68
2021/05/14 00:05:10;;;;;;;2.25;1.77;;;10.60;99.90;;;;;;5091319;28;20412;-66
2021/05/14 00:07:38;;;;;;;1.67;1.40;;;10.60;99.90;;;;;;5091074;28;20459;-66
2021/05/14 00:10:10;;;;;;;1.50;1.40;;;10.70;99.90;;;;;;5076082;28;20406;-66
2021/05/14 00:13:04;;;;;;;1.60;1.40;;;10.70;99.90;;;;;;5094933;28;20838;-67
2021/05/14 00:15:32;;;;;;;1.40;1.30;;;10.70;99.90;;;;;;5093906;28;20902;-66
2021/05/14 00:18:00;;;;;;;1.70;1.60;;;10.80;99.90;;;;;;5059936;28;20394;-65
2021/05/14 00:20:28;;;;;;;1.75;1.58;;;10.70;99.90;;;;;;5095015;28;20398;-66
2021/05/14 00:22:57;;;;;;;2.42;1.40;;;10.70;99.90;;;;;;5094990;28;20441;-67
2021/05/14 00:25:25;;;;;;;1.55;1.40;;;10.70;99.90;;;;;;5094742;28;20405;-68
2021/05/14 00:27:53;;;;;;;2.00;1.33;;;10.70;99.90;;;;;;5094735;28;20408;-65
2021/05/14 00:30:23;;;;;;;1.60;1.50;;;10.70;99.90;;;;;;5093749;28;20920;-66
2021/05/14 00:32:51;;;;;;;1.70;1.30;;;10.70;99.90;;;;;;5094763;28;20398;-66
2021/05/14 00:35:19;;;;;;;1.40;1.30;;;10.70;99.90;;;;;;5094776;28;20402;-65
2021/05/14 00:37:46;;;;;;;1.65;1.40;;;10.70;99.90;;;;;;5094793;28;20396;-66
2021/05/14 00:40:15;;;;;;;1.45;1.35;;;10.70;99.90;;;;;;5076956;28;20771;-66
2021/05/14 00:42:43;;;;;;;2.10;1.40;;;10.60;99.90;;;;;;5103075;28;20406;-67
2021/05/14 00:45:13;;;;;;;1.60;1.50;;;10.70;99.90;;;;;;5101900;28;20398;-67
2021/05/14 00:47:41;;;;;;;1.58;1.42;;;10.70;99.90;;;;;;5101601;28;20410;-67
2021/05/14 00:50:11;;;;;;;2.00;1.40;;;10.60;99.90;;;;;;5098855;28;20447;-68
2021/05/14 00:52:39;;;;;;;1.92;1.40;;;10.60;99.90;;;;;;5099941;28;20808;-68
2021/05/14 00:55:08;;;;;;;1.40;1.30;;;10.50;99.90;;;;;;5082087;28;20432;-67
2021/05/14 00:57:37;;;;;;;1.73;1.60;;;10.50;99.90;;;;;;5097832;28;20458;-67
2021/05/14 01:00:07;;;;;;;1.60;1.50;;;10.60;99.90;;;;;;5094764;28;20413;-67
2021/05/14 01:02:35;;;;;;;1.60;1.50;;;10.60;99.90;;;;;;5093964;28;20429;-67
2021/05/14 01:05:05;;;;;;;2.10;1.60;;;10.50;99.90;;;;;;5094065;28;20777;-67
2021/05/14 01:07:33;;;;;;;1.73;1.40;;;10.40;99.90;;;;;;5093499;28;20445;-67
2021/05/14 01:10:01;;;;;;;2.42;1.40;;;10.40;99.90;;;;;;5094021;28;20413;-67
2021/05/14 01:12:29;;;;;;;2.35;1.58;;;10.40;99.90;;;;;;5094168;28;20501;-67
2021/05/14 01:14:57;;;;;;;2.78;1.60;;;10.40;99.90;;;;;;5093486;28;20402;-66
2021/05/14 01:17:25;;;;;;;2.15;1.42;;;10.40;99.90;;;;;;5074668;28;20489;-66
2021/05/14 01:19:53;;;;;;;2.00;1.60;;;10.30;99.90;;;;;;5075415;28;20432;-68
2021/05/14 01:22:22;;;;;;;1.60;1.50;;;10.30;99.90;;;;;;5093281;28;20482;-66
2021/05/14 01:24:49;;;;;;;2.33;1.40;;;10.30;99.90;;;;;;5094062;28;20416;-67
2021/05/14 01:27:18;;;;;;;2.22;1.40;;;10.30;99.90;;;;;;5093820;28;20950;-67
2021/05/14 01:29:47;;;;;;;1.60;1.50;;;10.30;99.90;;;;;;5093362;28;20803;-66
2021/05/14 01:32:15;;;;;;;1.70;1.48;;;10.20;99.90;;;;;;5092591;28;20410;-67
2021/05/14 01:34:44;;;;;;;2.03;1.83;;;10.30;99.90;;;;;;5093318;28;20481;-67
2021/05/14 01:37:12;;;;;;;1.60;1.30;;;10.30;99.90;;;;;;5075207;28;20493;-67
2021/05/14 01:39:41;;;;;;;1.95;1.75;;;10.30;99.90;;;;;;5093658;28;20413;-67
2021/05/14 01:42:09;;;;;;;2.20;1.38;;;10.20;99.90;;;;;;5093783;28;20405;-66
2021/05/14 01:44:37;;;;;;;2.40;1.70;;;10.20;99.90;;;;;;5093305;28;20915;-67
2021/05/14 01:47:06;;;;;;;2.50;1.60;;;10.20;99.90;;;;;;5092137;28;20405;-67
2021/05/14 01:49:34;;;;;;;1.70;1.60;;;10.10;99.90;;;;;;5074833;28;20765;-68
2021/05/14 01:52:02;;;;;;;2.00;1.90;;;10.10;99.90;;;;;;5093162;28;20425;-67
2021/05/14 01:54:31;;;;;;;1.60;1.50;;;10.00;99.90;;;;;;5076087;28;20445;-66
2021/05/14 01:57:00;;;;;;;1.90;1.60;;;9.90;99.90;;;;;;5092813;28;20494;-66
2021/05/14 01:59:28;;;;;;;1.58;1.48;;;10.00;99.90;;;;;;5092720;28;20433;-68
2021/05/14 02:01:55;;;;;;;2.30;1.60;;;10.10;99.90;;;;;;5091744;28;20493;-66
2021/05/14 02:04:24;;;;;;;1.55;1.45;;;10.30;99.90;;;;;;5092787;28;20405;-68
2021/05/14 02:06:52;;;;;;;2.95;1.90;;;10.30;99.90;;;;;;5092591;28;20461;-66
2021/05/14 02:09:21;;;;;;;1.70;1.60;;;10.30;99.90;;;;;;5092341;28;20510;-66
2021/05/14 02:11:49;;;;;;;1.67;1.57;;;10.30;99.90;;;;;;5092482;28;20444;-66
2021/05/14 02:14:18;;;;;;;1.90;1.80;;;10.30;99.90;;;;;;5093028;28;20418;-67
2021/05/14 02:16:45;;;;;;;2.70;1.90;;;10.40;99.90;;;;;;5091454;28;20784;-68
2021/05/14 02:19:14;;;;;;;2.00;1.80;;;10.40;99.90;;;;;;5092287;28;20459;-67
2021/05/14 02:21:42;;;;;;;2.50;2.10;;;10.40;99.90;;;;;;5092111;28;20890;-66
2021/05/14 02:24:10;;;;;;;1.90;1.80;;;10.30;99.90;;;;;;5092330;28;20424;-67
2021/05/14 02:26:38;;;;;;;1.98;1.80;;;10.20;99.90;;;;;;5074150;28;20451;-67
2021/05/14 02:29:05;;;;;;;2.75;1.80;;;10.20;99.90;;;;;;5092044;28;20455;-66
2021/05/14 02:31:34;;;;;;;2.85;1.85;;;10.30;99.90;;;;;;5072605;28;20422;-67
2021/05/14 02:34:02;;;;;;;3.78;1.85;;;10.30;99.90;;;;;;5091619;28;20413;-66
2021/05/14 02:36:30;;;;;;;2.17;1.90;;;10.20;99.90;;;;;;5073803;28;20402;-67
2021/05/14 02:38:58;;;;;;;2.55;1.80;;;10.20;99.90;;;;;;5092039;28;20459;-66
2021/05/14 02:44:19;;;;;;;3.70;2.08;;;10.20;99.90;;;;;;5091981;28;20413;-66
2021/05/14 02:46:48;;;;;;;2.10;1.90;;;10.30;99.90;;;;;;5072849;28;20416;-66
2021/05/14 02:49:15;;;;;;;1.92;1.80;;;10.30;99.90;;;;;;5092251;28;20770;-66
2021/05/14 02:51:43;;;;;;;2.22;1.90;;;10.20;99.90;;;;;;5073862;28;20804;-66
2021/05/14 02:54:12;;;;;;;2.40;2.20;;;10.20;99.90;;;;;;5073786;28;20501;-66
2021/05/14 02:56:40;;;;;;;3.00;2.08;;;10.20;99.90;;;;;;5091925;28;20400;-66
2021/05/14 02:59:09;;;;;;;2.00;1.90;;;10.30;99.90;;;;;;5091883;28;20409;-67
2021/05/14 03:01:37;;;;;;;2.63;1.73;;;10.30;99.90;;;;;;5090684;28;20433;-69
2021/05/14 03:04:06;;;;;;;2.20;1.88;;;10.30;99.90;;;;;;5091904;28;20410;-65
2021/05/14 03:06:34;;;;;;;2.20;1.90;;;10.40;99.90;;;;;;5092036;28;20505;-66
2021/05/14 03:09:02;;;;;;;2.05;1.90;;;10.30;99.90;;;;;;5092150;28;20416;-66
2021/05/14 03:11:30;;;;;;;2.60;1.80;;;10.30;99.90;;;;;;5074316;28;20410;-67
2021/05/14 03:14:03;;;;;;;2.50;2.30;;;10.40;99.90;;;;;;5074111;28;20405;-67
2021/05/14 03:16:31;;;;;;;2.20;2.00;;;10.40;99.90;;;;;;5073011;28;20479;-66
2021/05/14 03:18:59;;;;;;;2.33;2.13;;;10.40;99.90;;;;;;5092467;28;20725;-66
2021/05/14 03:21:30;;;;;;;2.00;1.80;;;10.40;99.90;;;;;;5092099;28;20475;-66
2021/05/14 03:23:58;;;;;;;2.10;1.90;;;10.30;99.90;;;;;;5092069;28;20922;-66
2021/05/14 03:26:27;;;;;;;4.80;2.10;;;10.30;99.90;;;;;;5092023;28;20410;-65
2021/05/14 03:28:55;;;;;;;2.70;2.03;;;10.20;99.90;;;;;;5092080;28;20421;-66
2021/05/14 03:31:23;;;;;;;2.30;2.00;;;10.20;99.90;;;;;;5090524;28;20475;-66
2021/05/14 03:33:51;;;;;;;2.22;2.03;;;10.20;99.90;;;;;;5092003;28;20445;-66
2021/05/14 03:36:21;;;;;;;2.03;1.83;;;10.20;99.90;;;;;;5057175;28;20442;-66
2021/05/14 03:38:50;;;;;;;2.30;1.70;;;10.10;99.90;;;;;;5092090;28;20743;-67
2021/05/14 03:41:31;;;;;;;1.52;1.42;;;10.20;99.90;;;;;;5073690;28;20797;-67
2021/05/14 03:43:59;;;;;;;2.42;1.70;;;10.30;99.90;;;;;;5074965;28;20707;-67
2021/05/14 03:46:27;;;;;;;2.00;1.83;;;10.30;99.90;;;;;;5094906;28;20410;-66
2021/05/14 03:48:56;;;;;;;2.35;2.00;;;10.40;99.90;;;;;;5095484;28;20897;-66
2021/05/14 03:51:24;;;;;;;2.00;1.77;;;10.30;99.90;;;;;;5095395;28;20421;-66
2021/05/14 03:53:53;;;;;;;2.30;1.80;;;10.20;99.90;;;;;;5095315;28;20405;-66
2021/05/14 03:56:20;;;;;;;2.10;1.90;;;10.20;99.90;;;;;;5095289;28;20410;-66
2021/05/14 03:58:48;;;;;;;3.53;2.00;;;10.10;99.90;;;;;;5095587;28;20889;-66
2021/05/14 04:01:17;;;;;;;2.15;1.70;;;10.10;99.90;;;;;;5093829;28;20406;-67
2021/05/14 04:03:45;;;;;;;2.30;1.77;;;10.20;99.90;;;;;;5095433;28;20427;-66
2021/05/14 04:06:13;;;;;;;3.40;2.00;;;10.30;99.90;;;;;;5094997;28;20488;-66
2021/05/14 04:08:41;;;;;;;1.95;1.75;;;10.40;99.90;;;;;;5076938;28;20397;-66
2021/05/14 04:11:39;;;;;;;2.63;2.40;;;10.40;99.90;;;;;;5094860;28;20410;-66
2021/05/14 04:16:53;;;;;;;1.80;1.70;;;10.50;99.90;;;;;;5094952;28;20494;-66
2021/05/14 04:19:21;;;;;;;1.95;1.77;;;10.50;99.90;;;;;;5096219;28;20432;-66
2021/05/14 04:21:49;;;;;;;1.90;1.70;;;10.40;99.90;;;;;;5095679;28;20420;-68
2021/05/14 04:24:21;;;;;;;2.70;1.70;;;10.40;99.90;;;;;;5095850;28;20461;-67
2021/05/14 04:26:52;;;;;;;2.40;1.40;;;10.40;99.90;;;;;;5077909;28;20414;-67
2021/05/14 04:29:20;;;;;;;2.20;2.00;;;10.60;99.90;;;;;;5095409;28;20430;-65
2021/05/14 04:31:48;;;;;;;2.10;1.90;;;10.60;99.90;;;;;;5094175;28;20410;-66
2021/05/14 04:34:17;;;;;;;2.45;2.10;;;10.60;99.90;;;;;;5095216;28;20438;-65
2021/05/14 04:36:47;;;;;;;2.20;2.00;;;10.60;99.90;;;;;;5094899;28;20417;-68
2021/05/14 04:39:15;;;;;;;2.00;1.80;;;10.60;99.90;;;;;;5094970;28;20402;-66
2021/05/14 04:41:43;;;;;;;2.50;1.60;;;10.60;99.90;;;;;;5094676;28;20447;-66
2021/05/14 04:44:13;;;;;;;2.00;1.80;;;10.70;99.90;;;;;;5094762;28;20448;-68
2021/05/14 04:46:42;;;;;;;2.10;1.90;;;10.50;99.90;;;;;;5093600;28;20757;-66
2021/05/14 04:49:10;;;;;;;2.10;1.90;;;10.40;99.90;;;;;;5094375;28;20734;-67
2021/05/14 04:51:38;;;;;;;2.90;1.90;;;10.40;99.90;;;;;;5094454;28;20765;-66
2021/05/14 04:54:07;;;;;;;1.95;1.85;;;10.40;99.90;;;;;;5076457;28;20885;-68
2021/05/14 04:56:35;;;;;;;2.70;1.80;;;10.50;99.90;;;;;;5075671;28;20497;-66
2021/05/14 04:59:03;;;;;;;2.35;1.90;;;10.50;99.90;;;;;;5076200;28;20402;-66
2021/05/14 05:01:33;;;;;;;2.33;1.60;;;10.30;99.90;;;;;;5093540;28;20416;-67
2021/05/14 05:04:01;;;;;;;1.70;1.60;;;10.40;99.90;;;;;;5094570;28;20410;-67
2021/05/14 05:06:29;;;;;;;1.83;1.63;;;10.40;99.90;;;;;;5075730;28;20420;-66
2021/05/14 05:08:59;;;;;;;1.80;1.70;;;10.60;99.90;;;;;;5076344;28;20402;-66
2021/05/14 05:11:26;;;;;;;1.90;1.80;;;10.70;99.90;;;;;;5094092;28;20444;-66
2021/05/14 05:13:54;;;;;;;2.47;1.60;;;10.80;99.90;;;;;;5094092;28;20437;-66
2021/05/14 05:16:22;;;;;;;4.25;1.75;;;10.90;99.90;;;;;;5093177;28;20820;-66
2021/05/14 05:18:52;;;;;;;1.70;1.60;;;11.00;99.90;;;;;;5094010;28;20399;-65
2021/05/14 05:21:19;;;;;;;1.93;1.73;;;11.00;99.90;;;;;;5094272;28;20811;-65
2021/05/14 05:23:47;;;;;;;2.30;1.70;;;11.00;99.90;;;;;;5093455;28;20525;-65
2021/05/14 05:26:15;;;;;;;2.28;1.60;;;11.10;99.90;;;;;;5093656;28;20413;-65
2021/05/14 05:28:44;;;;;;;1.80;1.40;;;11.00;99.90;;;;;;5093957;28;20398;-65
2021/05/14 05:31:11;;;;;;;2.20;1.60;;;11.00;99.90;;;;;;5092625;28;20416;-66
2021/05/14 05:33:39;;;;;;;2.85;1.50;;;11.00;99.90;;;;;;5093860;28;20762;-65
2021/05/14 05:36:08;;;;;;;3.80;1.60;;;11.00;99.90;;;;;;5075513;28;20796;-65
2021/05/14 05:38:36;;;;;;;2.07;1.60;;;11.10;99.90;;;;;;5094268;28;20769;-66
2021/05/14 05:41:04;;;;;;;2.20;1.70;;;11.00;99.90;;;;;;5093628;28;20407;-65
2021/05/14 05:43:33;;;;;;;2.33;1.52;;;11.10;99.90;;;;;;5093810;28;20481;-65
2021/05/14 05:46:00;;;;;;;2.05;1.55;;;11.30;99.90;;;;;;5091936;28;20398;-65
2021/05/14 05:48:28;;;;;;;3.20;1.90;;;11.40;99.90;;;;;;5075229;28;20420;-65
2021/05/14 05:50:56;;;;;;;2.75;1.90;;;11.40;99.90;;;;;;5093151;28;20424;-66
2021/05/14 05:53:25;;;;;;;3.33;1.77;;;11.30;99.90;;;;;;5093905;28;20456;-65
2021/05/14 05:58:46;;;;;;;2.30;1.60;;;11.50;99.90;;;;;;5076175;28;20402;-68
2021/05/14 06:01:15;;;;;;;2.00;1.80;;;11.70;99.90;;;;;;5092903;28;20407;-67
2021/05/14 06:03:44;;;;;;;2.65;2.10;;;12.00;99.90;;;;;;5094372;28;20433;-67
2021/05/14 06:06:12;;;;;;;2.40;1.60;;;12.00;99.90;;;;;;5093328;28;20739;-68
2021/05/14 06:08:41;;;;;;;2.47;1.92;;;12.10;99.90;;;;;;5076010;28;20452;-66
2021/05/14 06:11:10;;;;;;;2.22;1.80;;;12.30;99.90;;;;;;5075725;28;20425;-65
2021/05/14 06:13:38;;;;;;;4.05;2.00;;;12.40;99.90;;;;;;5093918;28;20409;-66
2021/05/14 06:16:05;;;;;;;2.17;1.75;;;12.60;99.90;;;;;;5057365;28;20410;-68
2021/05/14 06:18:35;;;;;;;2.50;1.63;;;12.70;99.90;;;;;;5093554;28;20493;-66
2021/05/14 06:21:04;;;;;;;2.42;1.60;;;12.90;99.90;;;;;;5093352;28;20505;-68
2021/05/14 06:23:32;;;;;;;2.75;1.90;;;13.20;99.90;;;;;;5076674;28;20459;-65
2021/05/14 06:26:06;;;;;;;2.53;2.00;;;13.30;99.90;;;;;;5093699;28;20471;-66
2021/05/14 06:28:35;;;;;;;9.50;6.20;;;13.50;99.90;;;;;;5093236;28;20413;-66
2021/05/14 06:31:04;;;;;;;8.43;6.95;;;14.40;99.90;;;;;;5092140;28;20426;-65
2021/05/14 06:33:32;;;;;;;5.90;3.30;;;15.50;99.90;;;;;;5093042;28;20489;-66
2021/05/14 06:36:01;;;;;;;2.55;1.60;;;16.50;99.90;;;;;;5074919;28;20488;-65
2021/05/14 06:38:29;;;;;;;2.00;1.70;;;18.00;98.40;;;;;;5092856;28;20400;-65
2021/05/14 06:40:57;;;;;;;3.30;2.00;;;19.00;94.60;;;;;;5074669;28;20401;-66
2021/05/14 06:43:26;;;;;;;2.15;1.50;;;20.00;92.10;;;;;;5093251;28;20438;-65
2021/05/14 06:45:54;;;;;;;1.42;1.13;;;21.50;88.10;;;;;;5091590;28;20410;-65
2021/05/14 06:48:22;;;;;;;2.00;1.00;;;22.40;81.90;;;;;;5092814;28;20402;-66
2021/05/14 06:50:50;;;;;;;1.50;1.10;;;21.90;80.90;;;;;;5092834;28;20442;-65
2021/05/14 06:53:19;;;;;;;2.20;1.20;;;20.10;84.10;;;;;;5075155;28;20434;-65
2021/05/14 06:59:05;;;;;;;1.30;1.10;;;19.30;89.70;;;;;;5094907;28;20416;-66
2021/05/14 07:01:34;;;;;;;1.85;1.27;;;21.40;83.20;;;;;;5091796;28;20449;-65
2021/05/14 07:04:03;;;;;;;1.10;1.00;;;22.50;79.70;;;;;;5092546;28;20981;-66
2021/05/14 07:06:31;;;;;;;1.45;0.90;;;22.60;74.20;;;;;;5092183;28;20467;-65
2021/05/14 07:08:58;;;;;;;1.50;0.80;;;22.50;72.80;;;;;;5092717;28;20451;-65
2021/05/14 07:11:27;;;;;;;1.00;0.90;;;24.00;72.00;;;;;;5074939;28;20803;-68
2021/05/14 07:13:54;;;;;;;2.30;1.25;;;23.30;65.90;;;;;;5094219;28;20429;-67
2021/05/14 07:16:23;;;;;;;3.15;1.10;;;24.00;66.90;;;;;;5092009;28;20437;-66
2021/05/14 07:18:51;;;;;;;1.80;1.30;;;25.10;63.40;;;;;;5093573;28;20428;-66
2021/05/14 07:21:19;;;;;;;1.50;1.30;;;26.80;59.60;;;;;;5078339;28;20421;-65
2021/05/14 07:23:55;;;;;;;1.48;1.30;;;27.20;56.40;;;;;;5079432;28;20429;-66
2021/05/14 07:26:25;;;;;;;1.60;1.25;;;28.30;53.70;;;;;;5096438;28;20451;-66
2021/05/14 07:28:57;;;;;;;2.78;1.10;;;27.60;51.40;;;;;;5096225;28;20398;-66
2021/05/14 07:31:26;;;;;;;1.33;0.80;;;27.40;51.40;;;;;;5096213;28;20267;-66
2021/05/14 07:33:54;;;;;;;1.25;0.90;;;28.10;49.60;;;;;;5096290;28;20419;-66
2021/05/14 07:36:22;;;;;;;1.20;1.00;;;29.00;48.50;;;;;;5078233;28;20475;-67
2021/05/14 07:39:14;;;;;;;2.75;1.00;;;28.80;48.00;;;;;;5096655;28;21048;-66
2021/05/14 07:41:42;;;;;;;1.70;1.20;;;28.40;48.80;;;;;;5078267;28;20416;-66
2021/05/14 07:44:09;;;;;;;;;;;27.20;48.80;;;;;;5079252;28;20274;-66
2021/05/14 07:46:38;;;;;;;2.20;1.20;;;28.20;47.40;;;;;;5077380;28;20414;-69
2021/05/14 07:49:06;;;;;;;1.30;1.20;;;28.60;46.50;;;;;;5096378;28;20405;-67
2021/05/14 07:51:34;;;;;;;1.10;0.80;;;28.60;46.10;;;;;;5095920;28;20417;-68
2021/05/14 07:54:02;;;;;;;1.70;1.43;;;29.60;44.40;;;;;;5097406;28;20433;-67
2021/05/14 07:56:30;;;;;;;2.50;0.95;;;29.50;43.10;;;;;;5077612;28;20435;-68
2021/05/14 07:58:58;;;;;;;;;;;25.70;47.10;;;;;;5097031;28;20388;-66
2021/05/14 08:01:25;;;;;;;;;;;26.80;46.90;;;;;;5096038;28;19920;-66
2021/05/14 08:03:54;;;;;;;;;;;28.40;44.90;;;;;;5097004;28;19980;-66
2021/05/14 08:06:22;;;;;;;1.00;0.83;;;29.60;42.70;;;;;;5096367;28;20080;-68
2021/05/14 08:08:52;;;;;;;1.10;0.90;;;29.70;42.80;;;;;;5096798;28;20398;-66
2021/05/14 08:11:19;;;;;;;1.63;0.90;;;30.30;41.00;;;;;;5095861;28;21012;-68
2021/05/14 08:13:47;;;;;;;0.80;0.70;;;27.10;43.50;;;;;;5095535;28;20424;-65
2021/05/14 08:16:15;;;;;;;2.03;0.80;;;28.00;43.10;;;;;;5094245;28;20414;-66
2021/05/14 08:18:43;;;;;;;2.50;0.70;;;28.40;41.80;;;;;;5095147;28;20410;-67
2021/05/14 08:21:12;;;;;;;1.95;1.00;;;27.20;43.90;;;;;;5060018;28;20407;-67
2021/05/14 08:23:40;;;;;;;1.30;0.90;;;27.80;43.90;;;;;;5096990;28;20742;-67
2021/05/14 08:26:09;;;;;;;2.45;0.90;;;28.50;42.80;;;;;;5095617;28;20410;-67
2021/05/14 08:28:40;;;;;;;2.47;0.95;;;24.40;45.90;;;;;;5095559;28;20398;-67
2021/05/14 08:31:08;;;;;;;0.90;0.77;;;22.80;54.00;;;;;;5076695;28;20230;-68
2021/05/14 08:33:36;;;;;;;1.50;0.80;;;26.10;49.00;;;;;;5060868;28;20548;-66
2021/05/14 08:36:05;;;;;;;1.30;0.80;;;28.50;43.70;;;;;;5077637;28;20401;-65
2021/05/14 08:38:35;;;;;;;1.40;0.80;;;26.30;45.30;;;;;;5096223;28;20409;-66
2021/05/14 08:41:05;;;;;;;2.17;1.40;;;22.70;51.20;;;;;;5077545;28;20402;-65
2021/05/14 08:43:33;;;;;;;1.83;0.90;;;19.70;58.40;;;;;;5061502;28;20469;-64
2021/05/14 08:46:02;;;;;;;1.30;1.00;;;19.90;60.80;;;;;;5078092;28;20464;-66
2021/05/14 08:48:31;;;;;;;1.60;1.10;;;20.50;59.00;;;;;;5096202;28;20477;-65
2021/05/14 08:51:08;;;;;;;1.10;0.90;;;22.00;56.50;;;;;;5096018;28;20476;-66
2021/05/14 08:53:39;;;;;;;6.20;1.20;;;22.00;57.10;;;;;;5096381;28;20652;-66
2021/05/14 08:56:32;;;;;;;1.38;1.10;;;22.00;58.00;;;;;;5095234;28;20410;-65
2021/05/14 08:59:00;;;;;;;4.60;2.92;;;23.90;53.60;;;;;;5095253;28;20451;-65
2021/05/14 09:01:29;;;;;;;7.15;5.43;;;22.00;56.00;;;;;;5094315;28;20679;-65
2021/05/14 09:04:03;;;;;;;1.63;0.90;;;21.00;58.70;;;;;;5094882;28;20482;-65
2021/05/14 09:06:33;;;;;;;2.08;1.60;;;20.00;60.80;;;;;;5076128;28;20461;-65
2021/05/14 09:09:04;;;;;;;1.73;1.10;;;20.60;60.50;;;;;;5095231;28;20409;-66
2021/05/14 09:11:34;;;;;;;1.00;0.70;;;21.70;57.60;;;;;;5095252;28;20405;-65
2021/05/14 09:14:04;;;;;;;1.20;0.80;;;23.90;51.30;;;;;;5095317;28;20426;-66
2021/05/14 09:16:42;;;;;;;1.25;0.85;;;24.90;50.20;;;;;;5075882;28;20539;-65
2021/05/14 09:19:11;;;;;;;1.40;1.00;;;21.90;54.70;;;;;;5095007;28;20406;-65
2021/05/14 09:21:41;;;;;;;0.80;0.70;;;18.70;60.30;;;;;;5078375;28;20179;-65
2021/05/14 09:24:11;;;;;;;1.43;0.70;;;16.50;70.80;;;;;;5096646;28;20428;-65
2021/05/14 09:26:40;;;;;;;1.13;0.87;;;16.70;76.50;;;;;;5096430;28;20591;-65
2021/05/14 09:29:38;;;;;;;0.80;0.60;;;16.80;78.10;;;;;;5096402;28;20440;-66
2021/05/14 09:32:19;;;;;;;1.77;1.00;;;16.90;79.00;;;;;;5094945;28;20488;-65
2021/05/14 09:34:49;;;;;;;1.33;0.90;;;16.80;79.80;;;;;;5078416;28;20479;-65
2021/05/14 09:37:18;;;;;;;1.33;0.70;;;16.80;81.30;;;;;;5095791;28;20488;-65
2021/05/14 09:39:48;;;;;;;1.10;0.80;;;16.50;83.10;;;;;;5078025;28;20439;-65
2021/05/14 09:42:42;;;;;;;1.50;1.20;;;17.90;81.10;;;;;;5094091;28;20449;-66
2021/05/14 09:45:21;;;;;;;1.70;0.80;;;21.20;71.20;;;;;;5095049;28;20428;-65
2021/05/14 09:48:00;;;;;;;2.13;1.13;;;21.90;64.60;;;;;;5094953;28;20501;-64
2021/05/14 09:50:41;;;;;;;1.00;0.70;;;21.10;65.50;;;;;;5077118;28;20462;-64
2021/05/14 09:53:11;;;;;;;0.70;0.60;;;20.00;69.10;;;;;;5077399;28;20479;-65
2021/05/14 09:55:45;;;;;;;0.90;0.60;;;19.10;70.40;;;;;;5094962;28;20536;-65
2021/05/14 09:58:17;;;;;;;1.30;0.80;;;19.40;69.80;;;;;;5094542;28;20432;-66
2021/05/14 10:00:46;;;;;;;1.67;0.77;;;20.70;69.50;;;;;;5094135;28;20525;-64
2021/05/14 10:03:17;;;;;;;0.80;0.60;;;22.30;65.20;;;;;;5094907;28;20447;-64
2021/05/14 10:05:48;;;;;;;1.10;0.80;;;21.20;63.70;;;;;;5094919;28;20432;-64
2021/05/14 10:08:19;;;;;;;0.80;0.67;;;19.60;67.40;;;;;;5094393;28;20472;-65
2021/05/14 10:10:50;;;;;;;1.10;0.90;;;18.80;70.80;;;;;;5075993;28;20432;-64
2021/05/14 10:13:19;;;;;;;2.90;0.70;;;18.50;71.50;;;;;;5094338;28;20827;-67
2021/05/14 10:15:47;;;;;;;1.47;0.80;;;18.20;72.30;;;;;;5095649;28;20593;-64
2021/05/14 10:18:18;;;;;;;0.90;0.70;;;18.30;72.30;;;;;;5094988;28;20436;-65
2021/05/14 10:20:48;;;;;;;1.13;0.70;;;18.50;72.10;;;;;;5094555;28;20436;-64
2021/05/14 10:23:18;;;;;;;1.57;0.80;;;18.50;70.60;;;;;;5094103;28;20449;-64
2021/05/14 10:25:48;;;;;;;0.70;0.50;;;19.20;69.70;;;;;;5093942;28;20917;-65
2021/05/14 10:28:24;;;;;;;1.10;0.70;;;19.80;67.40;;;;;;5094244;28;20425;-64
2021/05/14 10:31:28;;;;;;;0.70;0.60;;;20.10;66.90;;;;;;5092690;28;20464;-65
2021/05/14 10:33:58;;;;;;;1.00;0.60;;;20.40;66.80;;;;;;5093952;28;20559;-65
2021/05/14 10:36:43;;;;;;;1.27;0.80;;;19.80;67.10;;;;;;5093999;28;20918;-65
2021/05/14 10:39:58;;;;;;;1.70;0.60;;;18.80;68.80;;;;;;5094685;28;20440;-64
2021/05/14 10:42:51;;;;;;;1.10;1.00;;;19.50;70.20;;;;;;4995521;28;20464;-66
2021/05/14 10:45:34;;;;;;;0.70;0.60;;;19.80;66.80;;;;;;4995808;28;20456;-65
2021/05/14 10:48:04;;;;;;;1.30;1.17;;;19.90;67.00;;;;;;4997092;28;20476;-63
2021/05/14 10:50:35;;;;;;;0.80;0.70;;;19.60;67.10;;;;;;4996749;28;20481;-63
2021/05/14 10:53:26;;;;;;;1.40;0.63;;;19.60;69.30;;;;;;4995678;28;20991;-63
2021/05/14 10:56:10;;;;;;;0.90;0.80;;;19.30;68.50;;;;;;4979593;28;20504;-63
2021/05/14 10:58:45;;;;;;;0.93;0.87;;;19.20;69.60;;;;;;4980854;28;20887;-64
2021/05/14 11:01:31;;;;;;;1.23;0.87;;;19.00;70.40;;;;;;4994950;28;20951;-65
2021/05/14 11:04:01;;;;;;;0.90;0.70;;;18.60;72.90;;;;;;4996096;28;20437;-65
2021/05/14 11:06:41;;;;;;;1.90;0.77;;;19.00;70.60;;;;;;4996588;28;20508;-67
2021/05/14 11:09:10;;;;;;;0.70;0.60;;;19.50;66.80;;;;;;4997206;28;20495;-65
2021/05/14 11:11:59;;;;;;;0.80;0.60;;;20.50;66.30;;;;;;4995448;28;20441;-65
2021/05/14 11:14:44;;;;;;;0.90;0.80;;;20.00;63.80;;;;;;4997091;28;20444;-65
2021/05/14 11:17:14;;;;;;;0.90;0.67;;;20.50;64.20;;;;;;4995962;28;20492;-65
2021/05/14 11:19:47;;;;;;;1.77;1.57;;;21.00;65.10;;;;;;4979744;28;20516;-65
2021/05/14 11:22:17;;;;;;;1.30;0.70;;;20.80;65.20;;;;;;4995568;28;20448;-64
2021/05/14 11:24:49;;;;;;;0.70;0.70;;;20.60;66.40;;;;;;4997198;28;20913;-63
2021/05/14 11:27:19;;;;;;;1.23;0.93;;;20.00;67.90;;;;;;4998200;28;20452;-67
2021/05/14 11:29:50;;;;;;;1.10;0.60;;;19.10;71.00;;;;;;5000348;28;20472;-72
2021/05/14 11:32:25;;;;;;;0.80;0.60;;;19.60;70.00;;;;;;4998215;28;20527;-65
2021/05/14 11:35:02;;;;;;;2.60;0.90;;;19.40;65.30;;;;;;4997420;28;20525;-69
2021/05/14 11:37:31;;;;;;;2.30;0.80;;;19.30;66.20;;;;;;4998000;28;20469;-64
2021/05/14 11:40:12;;;;;;;1.30;0.60;;;18.90;66.70;;;;;;4997103;28;20932;-64
2021/05/14 11:42:44;;;;;;;0.80;0.63;;;18.80;69.00;;;;;;4997786;28;20551;-66
2021/05/14 11:45:17;;;;;;;1.40;0.70;;;18.50;70.30;;;;;;4997350;28;20789;-65
2021/05/14 11:47:51;;;;;;;1.00;0.67;;;18.50;72.20;;;;;;4997478;28;20457;-66
2021/05/14 11:50:27;;;;;;;2.03;0.80;;;18.40;72.50;;;;;;4997102;28;20948;-65
2021/05/14 11:52:56;;;;;;;0.80;0.70;;;18.40;72.30;;;;;;4996978;28;20560;-64
2021/05/14 11:55:24;;;;;;;2.53;1.60;;;18.40;72.90;;;;;;4998391;28;20994;-64
2021/05/14 11:57:54;;;;;;;1.00;0.90;;;18.20;73.90;;;;;;4997771;28;20472;-64
2021/05/14 12:00:33;;;;;;;0.80;0.60;;;18.30;72.70;;;;;;4997994;28;23153;-69
2021/05/14 12:03:06;;;;;;;1.00;0.67;;;18.20;71.50;;;;;;4997784;28;20516;-68
2021/05/14 12:05:41;;;;;;;0.80;0.70;;;18.20;72.80;;;;;;5000091;28;20448;-64
2021/05/14 12:08:10;;;;;;;1.20;0.70;;;18.00;73.70;;;;;;5002229;28;20436;-67
2021/05/14 12:10:46;;;;;;;1.97;1.50;;;18.00;73.80;;;;;;5000457;28;20533;-65
2021/05/14 12:13:15;;;;;;;1.10;0.80;;;17.80;74.60;;;;;;5000711;28;20469;-65
2021/05/14 12:15:43;;;;;;;1.60;0.90;;;17.50;75.10;;;;;;5000251;28;20465;-64
2021/05/14 12:18:12;;;;;;;1.30;1.00;;;17.50;75.30;;;;;;5000745;28;20948;-64
2021/05/14 12:20:42;;;;;;;2.50;0.97;;;17.50;75.90;;;;;;4984447;28;20495;-66
2021/05/14 12:23:12;;;;;;;2.17;0.80;;;17.50;76.40;;;;;;5000660;28;20448;-64
2021/05/14 12:25:45;;;;;;;3.47;0.83;;;17.40;76.50;;;;;;4999446;28;20452;-65
2021/05/14 12:28:33;;;;;;;2.50;1.50;;;17.10;75.40;;;;;;4999081;28;20493;-66
2021/05/14 12:31:03;;;;;;;1.57;0.80;;;17.30;76.80;;;;;;4997699;28;20831;-68
2021/05/14 12:33:33;;;;;;;1.57;0.70;;;17.20;74.60;;;;;;4982042;28;20474;-65
2021/05/14 12:36:07;;;;;;;0.90;0.70;;;17.20;74.70;;;;;;4999090;28;20455;-65
2021/05/14 12:38:43;;;;;;;1.00;0.80;;;17.30;75.80;;;;;;4981154;28;20518;-67
2021/05/14 12:41:25;;;;;;;1.47;0.70;;;17.70;75.50;;;;;;4996911;28;20484;-65
2021/05/14 12:44:15;;;;;;;1.47;0.80;;;18.10;74.70;;;;;;4980664;28;20437;-63
2021/05/14 12:47:05;;;;;;;2.37;0.93;;;18.50;73.80;;;;;;4998134;28;20473;-70
2021/05/14 12:50:00;;;;;;;0.63;0.50;;;18.80;72.70;;;;;;4998532;28;20429;-63
2021/05/14 12:52:29;;;;;;;0.90;0.70;;;18.40;71.10;;;;;;4998513;28;20461;-65
2021/05/14 12:54:59;;;;;;;1.03;0.70;;;18.30;71.80;;;;;;4980796;28;20472;-65
2021/05/14 12:57:30;;;;;;;1.30;0.70;;;18.80;72.10;;;;;;4998604;28;20465;-65
2021/05/14 13:00:00;;;;;;;1.83;0.90;;;18.90;69.20;;;;;;4998220;28;20967;-66
2021/05/14 13:02:30;;;;;;;0.77;0.60;;;18.50;67.50;;;;;;4959811;28;20486;-65
2021/05/14 13:05:04;;;;;;;1.00;0.60;;;17.60;70.60;;;;;;4979069;28;20838;-68
2021/05/14 13:07:33;;;;;;;1.83;0.60;;;17.50;71.60;;;;;;4978962;28;20457;-65
2021/05/14 13:10:02;;;;;;;1.00;0.70;;;17.30;73.90;;;;;;4979064;28;20438;-67
2021/05/14 13:12:30;;;;;;;1.37;0.90;;;17.70;73.80;;;;;;4979614;28;20777;-65
2021/05/14 13:15:01;;;;;;;0.80;0.70;;;18.00;72.90;;;;;;4980355;28;20446;-65
2021/05/14 13:17:29;;;;;;;0.70;0.60;;;18.30;71.70;;;;;;4977076;28;20780;-66